sensor_id;sensor_type;location;lat;lon;timestamp;P1;durP1;ratioP1;P2;durP2;ratioP2
70731;SDS011;58316;48.164;11.538;2022-09-12T00:00:39;7.57;;;2.90;;
70731;SDS011;58316;48.164;11.538;2022-09-12T00:03:05;9.07;;;2.08;;
70731;SDS011;58316;48.164;11.538;2022-09-12T00:05:31;7.43;;;2.30;;
70731;SDS011;58316;48.164;11.538;2022-09-12T00:07:57;6.05;;;2.40;;
70731;SDS011;58316;48.164;11.538;2022-09-12T00:10:24;6.10;;;1.70;;
70731;SDS011;58316;48.164;11.538;2022-09-12T00:12:50;5.60;;;1.50;;
70731;SDS011;58316;48.164;11.538;2022-09-12T00:15:16;5.95;;;2.08;;
70731;SDS011;58316;48.164;11.538;2022-09-12T00:17:42;5.38;;;1.33;;
70731;SDS011;58316;48.164;11.538;2022-09-12T00:20:09;5.93;;;2.08;;
70731;SDS011;58316;48.164;11.538;2022-09-12T00:22:35;5.75;;;2.25;;
70731;SDS011;58316;48.164;11.538;2022-09-12T00:25:01;5.57;;;1.70;;
70731;SDS011;58316;48.164;11.538;2022-09-12T00:27:27;6.47;;;1.70;;
70731;SDS011;58316;48.164;11.538;2022-09-12T00:29:53;6.28;;;2.10;;
70731;SDS011;58316;48.164;11.538;2022-09-12T00:32:20;6.97;;;2.03;;
70731;SDS011;58316;48.164;11.538;2022-09-12T00:34:46;5.77;;;1.97;;
70731;SDS011;58316;48.164;11.538;2022-09-12T00:37:21;6.35;;;1.70;;
70731;SDS011;58316;48.164;11.538;2022-09-12T00:39:47;8.68;;;2.25;;
70731;SDS011;58316;48.164;11.538;2022-09-12T00:42:13;6.35;;;1.80;;
70731;SDS011;58316;48.164;11.538;2022-09-12T00:52:12;6.38;;;2.05;;
70731;SDS011;58316;48.164;11.538;2022-09-12T00:57:19;6.00;;;1.95;;
70731;SDS011;58316;48.164;11.538;2022-09-12T00:59:52;5.80;;;2.00;;
70731;SDS011;58316;48.164;11.538;2022-09-12T01:02:19;6.10;;;1.98;;
70731;SDS011;58316;48.164;11.538;2022-09-12T01:04:46;5.82;;;2.03;;
70731;SDS011;58316;48.164;11.538;2022-09-12T01:07:12;7.32;;;1.90;;
70731;SDS011;58316;48.164;11.538;2022-09-12T01:09:39;5.90;;;1.90;;
70731;SDS011;58316;48.164;11.538;2022-09-12T01:12:06;6.38;;;1.50;;
70731;SDS011;58316;48.164;11.538;2022-09-12T01:14:33;7.05;;;1.67;;
70731;SDS011;58316;48.164;11.538;2022-09-12T01:16:59;6.13;;;1.92;;
70731;SDS011;58316;48.164;11.538;2022-09-12T01:30:04;5.10;;;1.52;;
70731;SDS011;58316;48.164;11.538;2022-09-12T01:35:28;5.88;;;1.83;;
70731;SDS011;58316;48.164;11.538;2022-09-12T01:40:41;5.53;;;1.80;;
70731;SDS011;58316;48.164;11.538;2022-09-12T01:43:17;6.00;;;2.08;;
70731;SDS011;58316;48.164;11.538;2022-09-12T01:45:46;7.03;;;2.17;;
70731;SDS011;58316;48.164;11.538;2022-09-12T01:48:25;6.35;;;1.88;;
70731;SDS011;58316;48.164;11.538;2022-09-12T01:50:55;7.05;;;1.73;;
70731;SDS011;58316;48.164;11.538;2022-09-12T01:53:26;6.13;;;1.80;;
70731;SDS011;58316;48.164;11.538;2022-09-12T01:55:58;7.00;;;2.30;;
70731;SDS011;58316;48.164;11.538;2022-09-12T01:58:29;6.57;;;2.25;;
70731;SDS011;58316;48.164;11.538;2022-09-12T02:01:03;5.75;;;2.00;;
70731;SDS011;58316;48.164;11.538;2022-09-12T02:03:32;7.90;;;1.60;;
70731;SDS011;58316;48.164;11.538;2022-09-12T02:06:05;5.03;;;1.50;;
70731;SDS011;58316;48.164;11.538;2022-09-12T02:08:50;5.15;;;1.70;;
70731;SDS011;58316;48.164;11.538;2022-09-12T02:11:17;5.25;;;1.30;;
70731;SDS011;58316;48.164;11.538;2022-09-12T02:13:55;6.15;;;1.70;;
70731;SDS011;58316;48.164;11.538;2022-09-12T02:16:26;6.03;;;1.40;;
70731;SDS011;58316;48.164;11.538;2022-09-12T02:18:58;5.85;;;1.60;;
70731;SDS011;58316;48.164;11.538;2022-09-12T02:21:25;5.70;;;1.60;;
70731;SDS011;58316;48.164;11.538;2022-09-12T02:23:55;4.90;;;1.58;;
70731;SDS011;58316;48.164;11.538;2022-09-12T02:26:43;6.15;;;1.60;;
70731;SDS011;58316;48.164;11.538;2022-09-12T02:29:08;5.77;;;1.47;;
70731;SDS011;58316;48.164;11.538;2022-09-12T02:31:39;5.95;;;1.77;;
70731;SDS011;58316;48.164;11.538;2022-09-12T02:36:51;5.68;;;1.42;;
70731;SDS011;58316;48.164;11.538;2022-09-12T02:39:19;6.93;;;1.40;;
70731;SDS011;58316;48.164;11.538;2022-09-12T02:41:51;6.30;;;1.77;;
70731;SDS011;58316;48.164;11.538;2022-09-12T02:44:18;5.30;;;1.50;;
70731;SDS011;58316;48.164;11.538;2022-09-12T02:46:48;4.90;;;1.55;;
70731;SDS011;58316;48.164;11.538;2022-09-12T02:49:15;6.18;;;1.33;;
70731;SDS011;58316;48.164;11.538;2022-09-12T02:51:42;5.53;;;1.60;;
70731;SDS011;58316;48.164;11.538;2022-09-12T02:54:08;5.33;;;1.47;;
70731;SDS011;58316;48.164;11.538;2022-09-12T02:56:39;6.13;;;1.42;;
70731;SDS011;58316;48.164;11.538;2022-09-12T02:59:06;4.68;;;1.40;;
70731;SDS011;58316;48.164;11.538;2022-09-12T03:09:29;6.47;;;1.48;;
70731;SDS011;58316;48.164;11.538;2022-09-12T03:12:05;4.78;;;1.20;;
70731;SDS011;58316;48.164;11.538;2022-09-12T03:24:52;5.00;;;1.20;;
70731;SDS011;58316;48.164;11.538;2022-09-12T03:29:46;5.90;;;1.70;;
70731;SDS011;58316;48.164;11.538;2022-09-12T03:32:13;5.60;;;1.55;;
70731;SDS011;58316;48.164;11.538;2022-09-12T03:34:40;6.47;;;1.42;;
70731;SDS011;58316;48.164;11.538;2022-09-12T03:37:06;5.45;;;1.48;;
70731;SDS011;58316;48.164;11.538;2022-09-12T03:39:32;5.50;;;1.25;;
70731;SDS011;58316;48.164;11.538;2022-09-12T03:41:58;6.05;;;1.80;;
70731;SDS011;58316;48.164;11.538;2022-09-12T03:44:24;5.60;;;1.63;;
70731;SDS011;58316;48.164;11.538;2022-09-12T03:46:50;5.80;;;1.90;;
70731;SDS011;58316;48.164;11.538;2022-09-12T03:49:16;5.68;;;1.70;;
70731;SDS011;58316;48.164;11.538;2022-09-12T03:51:42;5.45;;;1.63;;
70731;SDS011;58316;48.164;11.538;2022-09-12T03:54:08;5.65;;;1.75;;
70731;SDS011;58316;48.164;11.538;2022-09-12T03:56:35;6.70;;;1.73;;
70731;SDS011;58316;48.164;11.538;2022-09-12T03:59:03;5.63;;;1.65;;
70731;SDS011;58316;48.164;11.538;2022-09-12T04:01:29;5.75;;;1.60;;
70731;SDS011;58316;48.164;11.538;2022-09-12T04:03:55;6.83;;;1.77;;
70731;SDS011;58316;48.164;11.538;2022-09-12T04:06:21;7.45;;;1.55;;
70731;SDS011;58316;48.164;11.538;2022-09-12T04:08:48;5.18;;;1.70;;
70731;SDS011;58316;48.164;11.538;2022-09-12T04:11:15;7.53;;;2.03;;
70731;SDS011;58316;48.164;11.538;2022-09-12T04:13:42;6.00;;;1.83;;
70731;SDS011;58316;48.164;11.538;2022-09-12T04:16:09;7.20;;;2.08;;
70731;SDS011;58316;48.164;11.538;2022-09-12T04:18:35;7.80;;;2.20;;
70731;SDS011;58316;48.164;11.538;2022-09-12T04:21:05;7.93;;;2.05;;
70731;SDS011;58316;48.164;11.538;2022-09-12T04:23:31;7.72;;;2.05;;
70731;SDS011;58316;48.164;11.538;2022-09-12T04:25:57;7.45;;;2.17;;
70731;SDS011;58316;48.164;11.538;2022-09-12T04:28:24;6.60;;;2.00;;
70731;SDS011;58316;48.164;11.538;2022-09-12T04:30:50;7.27;;;2.47;;
70731;SDS011;58316;48.164;11.538;2022-09-12T04:33:16;7.78;;;2.20;;
70731;SDS011;58316;48.164;11.538;2022-09-12T04:35:43;6.65;;;1.85;;
70731;SDS011;58316;48.164;11.538;2022-09-12T04:38:09;8.00;;;1.90;;
70731;SDS011;58316;48.164;11.538;2022-09-12T04:40:35;8.70;;;3.33;;
70731;SDS011;58316;48.164;11.538;2022-09-12T04:43:02;7.47;;;2.25;;
70731;SDS011;58316;48.164;11.538;2022-09-12T04:45:28;6.97;;;2.17;;
70731;SDS011;58316;48.164;11.538;2022-09-12T04:47:54;7.13;;;1.98;;
70731;SDS011;58316;48.164;11.538;2022-09-12T04:50:20;7.20;;;2.35;;
70731;SDS011;58316;48.164;11.538;2022-09-12T04:52:50;8.10;;;2.03;;
70731;SDS011;58316;48.164;11.538;2022-09-12T04:55:16;7.15;;;1.90;;
70731;SDS011;58316;48.164;11.538;2022-09-12T04:57:42;7.03;;;1.80;;
70731;SDS011;58316;48.164;11.538;2022-09-12T05:00:08;7.15;;;1.83;;
70731;SDS011;58316;48.164;11.538;2022-09-12T05:02:39;7.60;;;2.00;;
70731;SDS011;58316;48.164;11.538;2022-09-12T05:05:05;7.55;;;1.90;;
70731;SDS011;58316;48.164;11.538;2022-09-12T05:07:31;5.60;;;1.60;;
70731;SDS011;58316;48.164;11.538;2022-09-12T05:09:57;6.63;;;1.70;;
70731;SDS011;58316;48.164;11.538;2022-09-12T05:12:24;8.30;;;2.20;;
70731;SDS011;58316;48.164;11.538;2022-09-12T05:14:50;6.60;;;2.38;;
70731;SDS011;58316;48.164;11.538;2022-09-12T05:17:16;5.90;;;1.77;;
70731;SDS011;58316;48.164;11.538;2022-09-12T05:19:43;6.80;;;2.40;;
70731;SDS011;58316;48.164;11.538;2022-09-12T05:22:09;8.23;;;2.33;;
70731;SDS011;58316;48.164;11.538;2022-09-12T05:24:35;6.57;;;2.20;;
70731;SDS011;58316;48.164;11.538;2022-09-12T05:27:07;7.18;;;2.10;;
70731;SDS011;58316;48.164;11.538;2022-09-12T05:29:34;7.00;;;2.00;;
70731;SDS011;58316;48.164;11.538;2022-09-12T05:32:01;7.90;;;1.85;;
70731;SDS011;58316;48.164;11.538;2022-09-12T05:34:27;6.65;;;2.47;;
70731;SDS011;58316;48.164;11.538;2022-09-12T05:36:54;7.10;;;2.20;;
70731;SDS011;58316;48.164;11.538;2022-09-12T05:39:20;7.80;;;2.20;;
70731;SDS011;58316;48.164;11.538;2022-09-12T05:41:46;6.60;;;2.13;;
70731;SDS011;58316;48.164;11.538;2022-09-12T05:44:12;7.20;;;2.00;;
70731;SDS011;58316;48.164;11.538;2022-09-12T05:46:39;5.78;;;1.80;;
70731;SDS011;58316;48.164;11.538;2022-09-12T05:49:09;6.03;;;1.90;;
70731;SDS011;58316;48.164;11.538;2022-09-12T05:51:40;8.57;;;2.45;;
70731;SDS011;58316;48.164;11.538;2022-09-12T05:54:08;6.38;;;1.90;;
70731;SDS011;58316;48.164;11.538;2022-09-12T05:56:38;7.57;;;2.13;;
70731;SDS011;58316;48.164;11.538;2022-09-12T05:59:17;9.20;;;2.30;;
70731;SDS011;58316;48.164;11.538;2022-09-12T06:01:44;6.78;;;2.13;;
70731;SDS011;58316;48.164;11.538;2022-09-12T06:04:10;8.93;;;3.63;;
70731;SDS011;58316;48.164;11.538;2022-09-12T06:06:38;9.10;;;2.80;;
70731;SDS011;58316;48.164;11.538;2022-09-12T06:09:05;8.02;;;2.70;;
70731;SDS011;58316;48.164;11.538;2022-09-12T06:11:32;9.70;;;3.50;;
70731;SDS011;58316;48.164;11.538;2022-09-12T06:13:58;8.38;;;2.75;;
70731;SDS011;58316;48.164;11.538;2022-09-12T06:16:26;13.85;;;3.25;;
70731;SDS011;58316;48.164;11.538;2022-09-12T06:18:56;7.70;;;2.75;;
70731;SDS011;58316;48.164;11.538;2022-09-12T06:21:23;7.80;;;3.13;;
70731;SDS011;58316;48.164;11.538;2022-09-12T06:23:50;8.38;;;3.22;;
70731;SDS011;58316;48.164;11.538;2022-09-12T06:26:17;8.38;;;2.90;;
70731;SDS011;58316;48.164;11.538;2022-09-12T06:28:45;7.00;;;2.67;;
70731;SDS011;58316;48.164;11.538;2022-09-12T06:31:31;8.05;;;2.97;;
70731;SDS011;58316;48.164;11.538;2022-09-12T06:33:58;8.75;;;3.08;;
70731;SDS011;58316;48.164;11.538;2022-09-12T06:36:26;8.13;;;2.88;;
70731;SDS011;58316;48.164;11.538;2022-09-12T06:38:53;8.07;;;2.92;;
70731;SDS011;58316;48.164;11.538;2022-09-12T06:41:21;8.38;;;3.05;;
70731;SDS011;58316;48.164;11.538;2022-09-12T06:43:47;11.07;;;3.33;;
70731;SDS011;58316;48.164;11.538;2022-09-12T06:46:13;10.40;;;3.20;;
70731;SDS011;58316;48.164;11.538;2022-09-12T06:48:39;12.93;;;3.65;;
70731;SDS011;58316;48.164;11.538;2022-09-12T06:51:06;12.07;;;3.58;;
70731;SDS011;58316;48.164;11.538;2022-09-12T06:53:34;13.82;;;4.35;;
70731;SDS011;58316;48.164;11.538;2022-09-12T06:56:04;15.38;;;4.40;;
70731;SDS011;58316;48.164;11.538;2022-09-12T06:58:33;10.87;;;4.23;;
70731;SDS011;58316;48.164;11.538;2022-09-12T07:01:00;12.27;;;4.00;;
70731;SDS011;58316;48.164;11.538;2022-09-12T07:03:27;11.10;;;3.55;;
70731;SDS011;58316;48.164;11.538;2022-09-12T07:05:53;8.77;;;3.53;;
70731;SDS011;58316;48.164;11.538;2022-09-12T07:08:19;16.15;;;3.38;;
70731;SDS011;58316;48.164;11.538;2022-09-12T07:10:45;10.32;;;4.10;;
70731;SDS011;58316;48.164;11.538;2022-09-12T07:13:11;10.85;;;3.35;;
70731;SDS011;58316;48.164;11.538;2022-09-12T07:15:38;10.48;;;3.75;;
70731;SDS011;58316;48.164;11.538;2022-09-12T07:18:04;11.18;;;3.65;;
70731;SDS011;58316;48.164;11.538;2022-09-12T07:20:30;12.10;;;3.42;;
70731;SDS011;58316;48.164;11.538;2022-09-12T07:22:57;8.97;;;3.87;;
70731;SDS011;58316;48.164;11.538;2022-09-12T07:25:23;11.30;;;3.90;;
70731;SDS011;58316;48.164;11.538;2022-09-12T07:27:51;9.85;;;3.17;;
70731;SDS011;58316;48.164;11.538;2022-09-12T07:30:17;11.77;;;3.08;;
70731;SDS011;58316;48.164;11.538;2022-09-12T07:32:46;7.95;;;2.67;;
70731;SDS011;58316;48.164;11.538;2022-09-12T07:35:12;9.63;;;3.20;;
70731;SDS011;58316;48.164;11.538;2022-09-12T07:37:41;8.45;;;3.33;;
70731;SDS011;58316;48.164;11.538;2022-09-12T07:40:07;7.93;;;2.80;;
70731;SDS011;58316;48.164;11.538;2022-09-12T07:42:34;9.95;;;3.35;;
70731;SDS011;58316;48.164;11.538;2022-09-12T07:45:00;10.23;;;3.65;;
70731;SDS011;58316;48.164;11.538;2022-09-12T07:47:26;8.73;;;3.00;;
70731;SDS011;58316;48.164;11.538;2022-09-12T07:49:52;7.97;;;2.70;;
70731;SDS011;58316;48.164;11.538;2022-09-12T07:52:18;10.35;;;2.97;;
70731;SDS011;58316;48.164;11.538;2022-09-12T07:54:44;8.85;;;3.33;;
70731;SDS011;58316;48.164;11.538;2022-09-12T07:57:10;7.32;;;2.65;;
70731;SDS011;58316;48.164;11.538;2022-09-12T07:59:36;9.43;;;3.00;;
70731;SDS011;58316;48.164;11.538;2022-09-12T08:02:09;7.50;;;2.80;;
70731;SDS011;58316;48.164;11.538;2022-09-12T08:04:38;11.07;;;3.30;;
70731;SDS011;58316;48.164;11.538;2022-09-12T08:07:06;8.45;;;3.03;;
70731;SDS011;58316;48.164;11.538;2022-09-12T08:09:32;7.85;;;3.25;;
70731;SDS011;58316;48.164;11.538;2022-09-12T08:11:58;8.47;;;3.43;;
70731;SDS011;58316;48.164;11.538;2022-09-12T08:14:24;7.07;;;2.85;;
70731;SDS011;58316;48.164;11.538;2022-09-12T08:16:51;7.10;;;2.90;;
70731;SDS011;58316;48.164;11.538;2022-09-12T08:19:17;7.60;;;2.67;;
70731;SDS011;58316;48.164;11.538;2022-09-12T08:21:43;7.85;;;3.65;;
70731;SDS011;58316;48.164;11.538;2022-09-12T08:24:10;6.47;;;2.37;;
70731;SDS011;58316;48.164;11.538;2022-09-12T08:26:36;7.85;;;2.40;;
70731;SDS011;58316;48.164;11.538;2022-09-12T08:29:03;6.57;;;2.05;;
70731;SDS011;58316;48.164;11.538;2022-09-12T08:31:29;8.27;;;2.40;;
70731;SDS011;58316;48.164;11.538;2022-09-12T08:34:01;8.10;;;2.47;;
70731;SDS011;58316;48.164;11.538;2022-09-12T08:36:27;6.93;;;2.27;;
70731;SDS011;58316;48.164;11.538;2022-09-12T08:38:57;7.63;;;2.60;;
70731;SDS011;58316;48.164;11.538;2022-09-12T08:41:25;6.50;;;2.33;;
70731;SDS011;58316;48.164;11.538;2022-09-12T08:44:28;7.85;;;2.85;;
70731;SDS011;58316;48.164;11.538;2022-09-12T08:51:54;7.57;;;2.75;;
70731;SDS011;58316;48.164;11.538;2022-09-12T08:54:23;8.98;;;2.50;;
70731;SDS011;58316;48.164;11.538;2022-09-12T08:56:50;5.80;;;2.42;;
70731;SDS011;58316;48.164;11.538;2022-09-12T08:59:16;7.90;;;2.67;;
70731;SDS011;58316;48.164;11.538;2022-09-12T09:01:43;5.80;;;1.53;;
70731;SDS011;58316;48.164;11.538;2022-09-12T09:07:14;6.60;;;2.15;;
70731;SDS011;58316;48.164;11.538;2022-09-12T09:12:23;6.80;;;2.50;;
70731;SDS011;58316;48.164;11.538;2022-09-12T09:17:50;6.75;;;2.00;;
70731;SDS011;58316;48.164;11.538;2022-09-12T09:25:07;5.27;;;1.60;;
70731;SDS011;58316;48.164;11.538;2022-09-12T10:18:44;10.13;;;3.10;;
70731;SDS011;58316;48.164;11.538;2022-09-12T10:21:14;9.02;;;3.63;;
70731;SDS011;58316;48.164;11.538;2022-09-12T10:23:41;5.20;;;2.00;;
70731;SDS011;58316;48.164;11.538;2022-09-12T10:26:08;6.60;;;2.60;;
70731;SDS011;58316;48.164;11.538;2022-09-12T10:31:01;8.55;;;3.15;;
70731;SDS011;58316;48.164;11.538;2022-09-12T10:33:27;6.05;;;2.10;;
70731;SDS011;58316;48.164;11.538;2022-09-12T10:35:54;6.67;;;2.30;;
70731;SDS011;58316;48.164;11.538;2022-09-12T10:40:53;5.72;;;2.47;;
70731;SDS011;58316;48.164;11.538;2022-09-12T10:43:25;5.88;;;2.15;;
70731;SDS011;58316;48.164;11.538;2022-09-12T10:45:55;5.93;;;1.90;;
70731;SDS011;58316;48.164;11.538;2022-09-12T10:48:28;7.13;;;2.22;;
70731;SDS011;58316;48.164;11.538;2022-09-12T10:50:55;6.90;;;1.92;;
70731;SDS011;58316;48.164;11.538;2022-09-12T10:53:30;6.78;;;1.92;;
70731;SDS011;58316;48.164;11.538;2022-09-12T10:58:30;7.37;;;1.83;;
70731;SDS011;58316;48.164;11.538;2022-09-12T11:01:02;6.75;;;2.10;;
70731;SDS011;58316;48.164;11.538;2022-09-12T11:06:38;5.47;;;1.77;;
70731;SDS011;58316;48.164;11.538;2022-09-12T11:16:56;6.65;;;2.40;;
70731;SDS011;58316;48.164;11.538;2022-09-12T11:30:06;6.65;;;2.38;;
70731;SDS011;58316;48.164;11.538;2022-09-12T11:37:56;5.97;;;1.83;;
70731;SDS011;58316;48.164;11.538;2022-09-12T11:40:26;6.30;;;2.53;;
70731;SDS011;58316;48.164;11.538;2022-09-12T11:42:55;8.43;;;2.30;;
70731;SDS011;58316;48.164;11.538;2022-09-12T11:45:42;5.78;;;2.10;;
70731;SDS011;58316;48.164;11.538;2022-09-12T11:48:13;8.02;;;2.10;;
70731;SDS011;58316;48.164;11.538;2022-09-12T11:50:40;7.20;;;2.57;;
70731;SDS011;58316;48.164;11.538;2022-09-12T11:53:22;6.95;;;2.50;;
70731;SDS011;58316;48.164;11.538;2022-09-12T11:58:18;6.38;;;2.35;;
70731;SDS011;58316;48.164;11.538;2022-09-12T12:00:46;5.15;;;1.90;;
70731;SDS011;58316;48.164;11.538;2022-09-12T12:08:24;8.48;;;2.42;;
70731;SDS011;58316;48.164;11.538;2022-09-12T12:11:00;6.75;;;2.15;;
70731;SDS011;58316;48.164;11.538;2022-09-12T12:13:31;6.22;;;1.98;;
70731;SDS011;58316;48.164;11.538;2022-09-12T12:15:59;5.80;;;2.13;;
70731;SDS011;58316;48.164;11.538;2022-09-12T12:18:29;5.57;;;2.00;;
70731;SDS011;58316;48.164;11.538;2022-09-12T12:21:19;6.05;;;2.58;;
70731;SDS011;58316;48.164;11.538;2022-09-12T12:24:00;6.13;;;2.30;;
70731;SDS011;58316;48.164;11.538;2022-09-12T12:27:21;5.93;;;2.35;;
70731;SDS011;58316;48.164;11.538;2022-09-12T12:42:55;6.87;;;2.00;;
70731;SDS011;58316;48.164;11.538;2022-09-12T12:47:45;5.60;;;1.83;;
70731;SDS011;58316;48.164;11.538;2022-09-12T12:52:44;6.60;;;2.08;;
70731;SDS011;58316;48.164;11.538;2022-09-12T12:55:16;6.50;;;2.27;;
70731;SDS011;58316;48.164;11.538;2022-09-12T12:57:48;5.88;;;2.03;;
70731;SDS011;58316;48.164;11.538;2022-09-12T13:05:48;5.90;;;2.20;;
70731;SDS011;58316;48.164;11.538;2022-09-12T13:10:52;5.55;;;2.17;;
70731;SDS011;58316;48.164;11.538;2022-09-12T13:13:22;7.90;;;2.08;;
70731;SDS011;58316;48.164;11.538;2022-09-12T13:15:50;7.03;;;2.00;;
70731;SDS011;58316;48.164;11.538;2022-09-12T13:18:23;5.97;;;2.20;;
70731;SDS011;58316;48.164;11.538;2022-09-12T13:21:34;5.50;;;1.83;;
70731;SDS011;58316;48.164;11.538;2022-09-12T13:23:41;5.93;;;1.90;;
70731;SDS011;58316;48.164;11.538;2022-09-12T13:26:11;6.57;;;1.90;;
70731;SDS011;58316;48.164;11.538;2022-09-12T13:28:38;7.22;;;2.42;;
70731;SDS011;58316;48.164;11.538;2022-09-12T13:31:16;5.20;;;2.00;;
70731;SDS011;58316;48.164;11.538;2022-09-12T13:33:51;5.78;;;2.10;;
70731;SDS011;58316;48.164;11.538;2022-09-12T13:36:24;6.35;;;2.08;;
70731;SDS011;58316;48.164;11.538;2022-09-12T13:41:22;5.30;;;2.10;;
70731;SDS011;58316;48.164;11.538;2022-09-12T13:43:50;5.30;;;1.70;;
70731;SDS011;58316;48.164;11.538;2022-09-12T13:46:19;5.88;;;1.92;;
70731;SDS011;58316;48.164;11.538;2022-09-12T13:48:59;5.68;;;1.90;;
70731;SDS011;58316;48.164;11.538;2022-09-12T13:51:27;7.13;;;2.15;;
70731;SDS011;58316;48.164;11.538;2022-09-12T13:53:55;8.48;;;1.77;;
70731;SDS011;58316;48.164;11.538;2022-09-12T13:56:22;5.87;;;1.80;;
70731;SDS011;58316;48.164;11.538;2022-09-12T13:58:58;6.03;;;1.92;;
70731;SDS011;58316;48.164;11.538;2022-09-12T14:01:41;6.15;;;1.90;;
70731;SDS011;58316;48.164;11.538;2022-09-12T14:06:58;6.10;;;1.70;;
70731;SDS011;58316;48.164;11.538;2022-09-12T14:09:26;7.07;;;2.30;;
70731;SDS011;58316;48.164;11.538;2022-09-12T14:11:53;6.95;;;1.75;;
70731;SDS011;58316;48.164;11.538;2022-09-12T14:14:35;5.60;;;2.03;;
70731;SDS011;58316;48.164;11.538;2022-09-12T14:19:41;6.40;;;2.38;;
70731;SDS011;58316;48.164;11.538;2022-09-12T14:22:08;5.80;;;2.07;;
70731;SDS011;58316;48.164;11.538;2022-09-12T14:24:37;5.22;;;2.10;;
70731;SDS011;58316;48.164;11.538;2022-09-12T14:27:03;6.47;;;2.45;;
70731;SDS011;58316;48.164;11.538;2022-09-12T14:29:29;6.88;;;2.15;;
70731;SDS011;58316;48.164;11.538;2022-09-12T14:32:01;7.50;;;2.10;;
70731;SDS011;58316;48.164;11.538;2022-09-12T14:34:27;5.53;;;2.00;;
70731;SDS011;58316;48.164;11.538;2022-09-12T14:36:54;8.00;;;2.33;;
70731;SDS011;58316;48.164;11.538;2022-09-12T14:39:28;5.80;;;1.83;;
70731;SDS011;58316;48.164;11.538;2022-09-12T14:42:03;5.65;;;1.80;;
70731;SDS011;58316;48.164;11.538;2022-09-12T14:44:29;6.43;;;2.25;;
70731;SDS011;58316;48.164;11.538;2022-09-12T14:46:57;8.43;;;2.60;;
70731;SDS011;58316;48.164;11.538;2022-09-12T14:49:27;6.00;;;1.70;;
70731;SDS011;58316;48.164;11.538;2022-09-12T14:51:56;5.70;;;1.95;;
70731;SDS011;58316;48.164;11.538;2022-09-12T14:54:44;5.05;;;1.65;;
70731;SDS011;58316;48.164;11.538;2022-09-12T15:00:04;6.10;;;1.80;;
70731;SDS011;58316;48.164;11.538;2022-09-12T15:02:30;5.20;;;1.90;;
70731;SDS011;58316;48.164;11.538;2022-09-12T15:09:58;6.97;;;1.65;;
70731;SDS011;58316;48.164;11.538;2022-09-12T15:12:28;4.63;;;1.67;;
70731;SDS011;58316;48.164;11.538;2022-09-12T15:15:05;5.25;;;1.23;;
70731;SDS011;58316;48.164;11.538;2022-09-12T15:17:31;5.88;;;1.75;;
70731;SDS011;58316;48.164;11.538;2022-09-12T15:19:57;5.38;;;2.17;;
70731;SDS011;58316;48.164;11.538;2022-09-12T15:22:23;5.70;;;2.07;;
70731;SDS011;58316;48.164;11.538;2022-09-12T15:24:50;9.80;;;2.47;;
70731;SDS011;58316;48.164;11.538;2022-09-12T15:27:17;7.75;;;2.58;;
70731;SDS011;58316;48.164;11.538;2022-09-12T15:29:43;6.50;;;2.65;;
70731;SDS011;58316;48.164;11.538;2022-09-12T15:32:11;5.53;;;2.03;;
70731;SDS011;58316;48.164;11.538;2022-09-12T15:34:40;6.07;;;2.38;;
70731;SDS011;58316;48.164;11.538;2022-09-12T15:37:10;5.50;;;1.93;;
70731;SDS011;58316;48.164;11.538;2022-09-12T15:39:38;5.38;;;1.90;;
70731;SDS011;58316;48.164;11.538;2022-09-12T15:42:04;8.27;;;2.13;;
70731;SDS011;58316;48.164;11.538;2022-09-12T15:44:30;5.22;;;1.60;;
70731;SDS011;58316;48.164;11.538;2022-09-12T15:46:56;5.50;;;1.73;;
70731;SDS011;58316;48.164;11.538;2022-09-12T15:49:22;5.50;;;2.30;;
70731;SDS011;58316;48.164;11.538;2022-09-12T15:51:48;5.25;;;1.77;;
70731;SDS011;58316;48.164;11.538;2022-09-12T15:54:14;7.50;;;1.55;;
70731;SDS011;58316;48.164;11.538;2022-09-12T15:56:42;8.57;;;2.28;;
70731;SDS011;58316;48.164;11.538;2022-09-12T15:59:08;8.90;;;3.20;;
70731;SDS011;58316;48.164;11.538;2022-09-12T16:01:34;10.60;;;2.90;;
70731;SDS011;58316;48.164;11.538;2022-09-12T16:04:00;6.05;;;1.70;;
70731;SDS011;58316;48.164;11.538;2022-09-12T16:06:27;5.68;;;1.90;;
70731;SDS011;58316;48.164;11.538;2022-09-12T16:08:54;5.72;;;2.00;;
70731;SDS011;58316;48.164;11.538;2022-09-12T16:11:22;6.20;;;2.00;;
70731;SDS011;58316;48.164;11.538;2022-09-12T16:13:48;6.90;;;2.10;;
70731;SDS011;58316;48.164;11.538;2022-09-12T16:19:18;5.43;;;1.75;;
70731;SDS011;58316;48.164;11.538;2022-09-12T16:21:47;7.18;;;2.05;;
70731;SDS011;58316;48.164;11.538;2022-09-12T16:24:13;5.97;;;2.00;;
70731;SDS011;58316;48.164;11.538;2022-09-12T16:26:39;5.80;;;2.00;;
70731;SDS011;58316;48.164;11.538;2022-09-12T16:29:05;5.63;;;2.30;;
70731;SDS011;58316;48.164;11.538;2022-09-12T16:31:31;6.50;;;1.98;;
70731;SDS011;58316;48.164;11.538;2022-09-12T16:33:58;5.95;;;1.77;;
70731;SDS011;58316;48.164;11.538;2022-09-12T16:36:24;6.07;;;2.08;;
70731;SDS011;58316;48.164;11.538;2022-09-12T16:38:51;5.30;;;2.10;;
70731;SDS011;58316;48.164;11.538;2022-09-12T16:41:18;6.15;;;2.55;;
70731;SDS011;58316;48.164;11.538;2022-09-12T16:43:45;5.15;;;2.08;;
70731;SDS011;58316;48.164;11.538;2022-09-12T16:48:40;5.60;;;2.30;;
70731;SDS011;58316;48.164;11.538;2022-09-12T16:51:06;7.85;;;2.60;;
70731;SDS011;58316;48.164;11.538;2022-09-12T16:53:37;7.90;;;3.40;;
70731;SDS011;58316;48.164;11.538;2022-09-12T16:56:03;7.72;;;3.10;;
70731;SDS011;58316;48.164;11.538;2022-09-12T16:58:34;9.55;;;3.40;;
70731;SDS011;58316;48.164;11.538;2022-09-12T17:01:00;7.30;;;2.53;;
70731;SDS011;58316;48.164;11.538;2022-09-12T17:03:27;6.70;;;1.83;;
70731;SDS011;58316;48.164;11.538;2022-09-12T17:06:00;10.63;;;3.50;;
70731;SDS011;58316;48.164;11.538;2022-09-12T17:08:27;8.60;;;2.38;;
70731;SDS011;58316;48.164;11.538;2022-09-12T17:11:06;6.65;;;2.17;;
70731;SDS011;58316;48.164;11.538;2022-09-12T17:13:32;6.13;;;1.90;;
70731;SDS011;58316;48.164;11.538;2022-09-12T17:15:58;8.13;;;2.55;;
70731;SDS011;58316;48.164;11.538;2022-09-12T17:18:25;10.85;;;3.28;;
70731;SDS011;58316;48.164;11.538;2022-09-12T17:20:51;6.28;;;2.70;;
70731;SDS011;58316;48.164;11.538;2022-09-12T17:23:17;9.18;;;3.63;;
70731;SDS011;58316;48.164;11.538;2022-09-12T17:25:47;9.30;;;2.20;;
70731;SDS011;58316;48.164;11.538;2022-09-12T17:28:13;8.63;;;2.50;;
70731;SDS011;58316;48.164;11.538;2022-09-12T17:30:39;6.22;;;2.13;;
70731;SDS011;58316;48.164;11.538;2022-09-12T17:33:05;8.48;;;2.80;;
70731;SDS011;58316;48.164;11.538;2022-09-12T17:35:34;8.05;;;2.95;;
70731;SDS011;58316;48.164;11.538;2022-09-12T17:38:01;8.90;;;3.40;;
70731;SDS011;58316;48.164;11.538;2022-09-12T17:40:27;7.72;;;3.03;;
70731;SDS011;58316;48.164;11.538;2022-09-12T17:42:53;10.45;;;4.47;;
70731;SDS011;58316;48.164;11.538;2022-09-12T17:45:20;7.75;;;3.88;;
70731;SDS011;58316;48.164;11.538;2022-09-12T17:47:46;9.23;;;3.13;;
70731;SDS011;58316;48.164;11.538;2022-09-12T17:50:13;9.40;;;3.27;;
70731;SDS011;58316;48.164;11.538;2022-09-12T17:52:41;7.93;;;2.90;;
70731;SDS011;58316;48.164;11.538;2022-09-12T17:55:07;8.40;;;3.15;;
70731;SDS011;58316;48.164;11.538;2022-09-12T17:57:33;8.82;;;2.92;;
70731;SDS011;58316;48.164;11.538;2022-09-12T17:59:59;8.73;;;3.17;;
70731;SDS011;58316;48.164;11.538;2022-09-12T18:02:25;8.23;;;3.00;;
70731;SDS011;58316;48.164;11.538;2022-09-12T18:04:51;9.18;;;3.40;;
70731;SDS011;58316;48.164;11.538;2022-09-12T18:07:18;9.70;;;3.35;;
70731;SDS011;58316;48.164;11.538;2022-09-12T18:09:44;6.95;;;2.95;;